Latest Weather Observations for Gatton

IDQ60901

Issued at 9:51 pm EST Wednesday 26 April 2017 (issued every 10 minutes, with the page automatically refreshed every 10 minutes)

About weather observations | Map of Brisbane area stations | Latest observations for Brisbane area | Other Formats
Station Details ID: 040082 Name: UNIVERSITY OF QUEENSLAND GATTON Lat: -27.54 Lon: 152.34 Height: 89.0 m
Data from the previous 72 hours. | See also: Recent months at Gatton
Date/Time
EST
Temp
°C
App
Temp
°C
Dew
Point
°C
Rel
Hum
%
Delta-T
°C
Wind Press
QNH
hPa
Press
MSL
hPa
Rain since
9am
mm
Dir  Spd
km/h
Gust
km/h
Spd
kts
Gust
kts
26/09:30pm 17.9 17.4 14.8 82 1.8 W 11 15 6 8 - - 3.2
26/09:00pm 18.5 19.3 16.3 87 1.3 W 7 11 4 6 - - 3.2
26/08:30pm 18.8 19.8 16.8 88 1.2 WSW 7 11 4 6 - - 3.2
26/08:00pm 18.8 19.5 17.1 90 1.0 W 9 15 5 8 - - 3.2
26/07:30pm 18.6 19.1 16.6 88 1.2 W 9 13 5 7 - - 3.2
26/07:00pm 19.1 19.9 17.2 89 1.2 NW 9 13 5 7 - - 3.2
26/06:30pm 19.0 19.9 17.5 91 0.9 NW 9 11 5 6 - - 3.2
26/06:00pm 19.5 21.9 18.0 91 0.9 WNW 2 7 1 4 - - 3.2
26/05:30pm 19.8 21.3 18.1 90 1.1 WNW 7 13 4 7 - - 3.2
26/05:00pm 20.2 20.6 18.1 88 1.3 W 13 17 7 9 - - 3.2
26/04:30pm 20.9 22.9 19.2 90 1.1 WNW 7 9 4 5 - - 2.2
26/04:00pm 21.6 23.4 18.8 84 1.8 N 7 9 4 5 - - 0.4
26/03:30pm 22.1 24.1 19.1 83 1.9 N 7 9 4 5 - - 0.4
26/03:00pm 22.6 26.1 19.6 83 1.9 CALM 0 4 0 2 - - 0.4
26/02:30pm 21.2 24.1 18.2 83 1.9 CALM 0 0 0 0 - - 0.4
26/02:00pm 21.3 24.2 18.3 83 1.9 CALM 0 0 0 0 - - 0.2
26/01:30pm 21.6 24.2 17.4 77 2.6 CALM 0 0 0 0 - - 0.0
26/01:00pm 22.1 24.7 17.5 75 2.9 CALM 0 0 0 0 - - 0.0
26/12:30pm 21.6 24.1 17.2 76 2.7 CALM 0 6 0 3 - - 0.0
26/12:00pm 21.4 23.9 17.2 77 2.6 CALM 0 6 0 3 - - 0.0
26/11:30am 20.8 22.4 16.8 78 2.4 S 4 7 2 4 - - 0.0
26/11:00am 20.3 21.9 15.9 76 2.6 NW 2 7 1 4 - - 0.0
26/10:30am 19.8 20.5 16.1 79 2.2 N 7 9 4 5 - - 0.0
26/10:00am 19.5 21.3 15.6 78 2.3 CALM 0 6 0 3 - - 0.0
26/09:30am 19.6 21.3 16.3 81 2.0 S 2 7 1 4 - - 0.0
26/09:00am 18.3 18.5 15.7 85 1.5 WSW 9 13 5 7 - - 0.0
26/08:30am 17.1 18.6 14.7 86 1.4 CALM 0 0 0 0 - - 0.0
26/08:00am 16.7 18.2 14.7 88 1.2 CALM 0 0 0 0 - - 0.0
26/07:30am 16.2 17.6 14.4 89 1.0 CALM 0 0 0 0 - - 0.0
26/07:00am 15.8 17.2 14.3 91 0.9 CALM 0 0 0 0 - - 0.0
26/06:30am 15.4 14.9 13.8 90 0.9 WSW 9 11 5 6 - - 0.0
26/06:00am 15.2 16.3 13.4 89 1.0 CALM 0 0 0 0 - - 0.0
26/05:30am 15.2 15.6 13.6 90 0.9 W 4 7 2 4 - - 0.0
26/05:00am 15.0 15.3 13.4 90 0.9 W 4 7 2 4 - - 0.0
26/04:30am 14.8 15.0 13.2 90 0.9 WSW 4 7 2 4 - - 0.0
26/04:00am 14.3 15.1 12.7 90 0.9 CALM 0 0 0 0 - - 0.0
26/03:30am 14.7 14.5 12.9 89 1.0 WSW 6 7 3 4 - - 0.0
26/03:00am 14.8 14.5 13.3 91 0.8 W 7 11 4 6 - - 0.0
26/02:30am 14.0 13.5 12.7 92 0.7 WSW 7 9 4 5 - - 0.0
26/02:00am 13.9 13.4 12.8 93 0.6 W 7 9 4 5 - - 0.0
26/01:30am 13.3 12.7 12.2 93 0.6 WSW 7 9 4 5 - - 0.0
26/01:00am 13.0 13.1 11.6 91 0.7 WSW 2 7 1 4 - - 0.0
26/12:30am 13.4 13.6 11.8 90 0.9 SW 2 6 1 3 - - 0.0
26/12:00am 13.7 13.1 12.4 92 0.7 WSW 7 9 4 5 - - 0.0
 
Date/Time
EST
Temp
°C
App
Temp
°C
Dew
Point
°C
Rel
Hum
%
Delta-T
°C
Wind Press
QNH
hPa
Press
MSL
hPa
Rain since
9am
mm
Dir  Spd
km/h
Gust
km/h
Spd
kts
Gust
kts
25/11:30pm 13.7 13.6 12.1 90 0.9 WSW 4 7 2 4 - - 0.0
25/11:00pm 13.6 13.4 11.7 88 1.0 WSW 4 7 2 4 - - 0.0
25/10:30pm 13.8 13.6 11.8 88 1.1 S 4 7 2 4 - - 0.0
25/10:00pm 14.5 15.2 12.2 86 1.3 CALM 0 0 0 0 - - 0.0
25/09:30pm 15.3 15.4 12.8 85 1.4 SE 4 7 2 4 - - 0.0
25/09:00pm 15.6 16.5 12.9 84 1.5 CALM 0 0 0 0 - - 0.0
25/08:30pm 15.8 16.6 12.5 81 1.8 CALM 0 0 0 0 - - 0.0
25/08:00pm 16.2 17.0 12.4 78 2.1 CALM 0 0 0 0 - - 0.0
25/07:30pm 16.8 16.4 12.5 76 2.4 ESE 6 7 3 4 - - 0.0
25/07:00pm 17.6 18.4 12.5 72 2.8 CALM 0 0 0 0 - - 0.0
25/06:30pm 19.1 19.2 12.6 66 3.7 NE 4 7 2 4 - - 0.0
25/06:00pm 20.9 20.4 12.6 59 4.7 NE 7 11 4 6 - - 0.0
25/05:30pm 22.2 21.3 12.7 55 5.4 ENE 9 11 5 6 - - 0.0
25/05:00pm 24.1 22.9 12.7 49 6.6 NE 11 15 6 8 - - 0.0
25/04:30pm 25.2 24.5 13.1 47 7.1 NE 9 13 5 7 - - 0.0
25/04:00pm 25.8 24.9 12.6 44 7.7 NE 9 13 5 7 - - 0.0
25/03:30pm 26.1 25.0 13.2 44 7.6 NNE 11 17 6 9 - - 0.0
25/03:00pm 26.2 25.5 13.3 45 7.6 NE 9 15 5 8 - - 0.0
25/02:30pm 26.4 25.5 14.8 49 7.0 NE 13 20 7 11 - - 0.0
25/02:00pm 26.4 26.5 15.4 50 6.7 NNE 9 17 5 9 - - 0.0
25/01:30pm 25.7 25.4 14.5 50 6.7 NNE 9 20 5 11 - - 0.0
25/01:00pm 25.1 24.4 14.3 51 6.4 NE 11 17 6 9 - - 0.0
25/12:30pm 25.6 25.2 15.3 53 6.2 NE 11 20 6 11 - - 0.0
25/12:00pm 24.9 24.3 14.7 53 6.1 ENE 11 20 6 11 - - 0.0
25/11:30am 24.5 24.8 15.1 55 5.7 NNE 7 13 4 7 - - 0.0
25/11:00am 23.7 23.6 14.9 57 5.3 NNE 9 17 5 9 - - 0.0
25/10:30am 22.9 24.0 15.7 64 4.3 NNE 4 11 2 6 - - 0.0
25/10:00am 21.7 22.7 15.3 67 3.8 E 4 9 2 5 - - 0.0
25/09:30am 21.5 23.5 16.9 75 2.8 N 2 7 1 4 - - 0.0
25/09:00am 19.6 20.2 15.7 78 2.3 W 7 11 4 6 - - 0.0
25/08:30am 17.9 18.2 15.0 83 1.7 W 7 11 4 6 - - 0.0
25/08:00am 16.0 16.2 14.2 89 1.0 W 6 9 3 5 - - 0.0
25/07:30am 14.8 14.7 13.2 90 0.9 W 6 9 3 5 - - 0.0
25/07:00am 13.3 12.0 12.4 94 0.5 W 11 13 6 7 - - 0.0
25/06:30am 12.4 11.2 11.5 94 0.5 W 9 11 5 6 - - 0.0
25/06:00am 12.3 11.4 11.4 94 0.5 W 7 11 4 6 - - 0.0
25/05:30am 12.7 11.6 11.8 94 0.5 WSW 9 13 5 7 - - 0.0
25/05:00am 13.0 11.9 12.1 94 0.5 W 9 13 5 7 - - 0.0
25/04:30am 13.1 12.1 12.3 95 0.4 W 9 13 5 7 - - 0.0
25/04:00am 13.1 12.1 12.2 94 0.5 W 9 11 5 6 - - 0.0
25/03:30am 13.2 12.6 12.3 94 0.5 W 7 9 4 5 - - 0.0
25/03:00am 13.2 12.1 12.1 93 0.6 W 9 13 5 7 - - 0.0
25/02:30am 13.5 12.9 12.4 93 0.6 W 7 9 4 5 - - 0.0
25/02:00am 14.1 13.4 13.1 94 0.6 WSW 9 11 5 6 - - 0.0
25/01:30am 13.7 12.9 12.8 94 0.5 WSW 9 11 5 6 - - 0.0
25/01:00am 13.6 13.1 12.8 95 0.4 WSW 7 9 4 5 - - 0.0
25/12:30am 13.3 14.0 12.2 93 0.6 CALM 0 7 0 4 - - 0.0
25/12:00am 13.7 14.5 12.4 92 0.7 CALM 0 0 0 0 - - 0.0
 
Date/Time
EST
Temp
°C
App
Temp
°C
Dew
Point
°C
Rel
Hum
%
Delta-T
°C
Wind Press
QNH
hPa
Press
MSL
hPa
Rain since
9am
mm
Dir  Spd
km/h
Gust
km/h
Spd
kts
Gust
kts
24/11:30pm 13.9 13.4 12.8 93 0.6 W 7 9 4 5 - - 0.0
24/11:00pm 14.2 13.8 13.1 93 0.6 WSW 7 9 4 5 - - 0.0
24/10:30pm 14.0 14.7 12.2 89 1.0 CALM 0 0 0 0 - - 0.0
24/10:00pm 14.7 14.9 13.1 90 0.9 S 4 7 2 4 - - 0.0
24/09:30pm 15.1 15.8 13.3 89 1.0 SE 2 6 1 3 - - 0.0
24/09:00pm 15.7 15.7 13.5 87 1.2 ESE 6 9 3 5 - - 0.0
24/08:30pm 16.3 16.4 14.0 86 1.3 SE 6 7 3 4 - - 0.0
24/08:00pm 17.2 17.0 14.7 85 1.4 SSE 9 11 5 6 - - 0.0
24/07:30pm 17.6 18.8 13.9 79 2.1 CALM 0 0 0 0 - - 0.0
24/07:00pm 19.6 19.6 15.3 76 2.5 NE 9 11 5 6 - - 0.0
24/06:30pm 20.3 19.5 15.1 72 3.1 ENE 13 17 7 9 - - 0.0
24/06:00pm 20.8 19.2 14.9 69 3.5 E 17 20 9 11 - - 0.0
24/05:30pm 22.1 20.9 15.0 64 4.2 E 15 20 8 11 - - 0.0
24/05:00pm 23.9 22.3 11.6 46 7.0 ESE 11 17 6 9 - - 0.0
24/04:30pm 24.9 24.1 12.8 47 7.0 E 9 15 5 8 - - 0.0
24/04:00pm 25.5 24.0 12.0 43 7.7 E 11 17 6 9 - - 0.0
24/03:30pm 25.6 24.4 12.8 45 7.4 ESE 11 17 6 9 - - 0.0
24/03:00pm 26.4 26.3 13.9 46 7.4 NNE 7 13 4 7 - - 0.0
24/02:30pm 25.9 25.7 13.7 47 7.2 E 7 13 4 7 - - 0.0
24/02:00pm 25.1 24.5 12.3 45 7.4 E 7 11 4 6 - - 0.0
24/01:30pm 24.6 23.6 12.2 46 7.1 S 9 15 5 8 - - 0.0
24/01:00pm 25.8 25.7 13.3 46 7.3 NE 6 11 3 6 - - 0.0
24/12:30pm 24.2 24.4 14.3 54 5.9 NE 6 11 3 6 - - 0.0
24/12:00pm 24.6 24.8 14.7 54 5.9 N 7 17 4 9 - - 0.0
24/11:30am 24.9 24.3 14.7 53 6.1 ENE 11 19 6 10 - - 0.0
24/11:00am 23.9 22.9 13.4 51 6.1 E 11 19 6 10 - - 0.0
24/10:30am 23.1 22.2 13.6 55 5.5 ESE 11 17 6 9 - - 0.0
24/10:00am 22.1 21.3 14.0 60 4.7 SSE 11 17 6 9 - - 0.0
24/09:30am 21.4 21.6 14.6 65 4.0 SSE 7 15 4 8 - - 0.0
24/09:00am 19.9 20.6 15.5 76 2.6 WNW 6 13 3 7 - - 0.0
24/08:30am 17.8 18.0 14.7 82 1.8 W 7 9 4 5 - - 0.0
24/08:00am 17.6 17.9 14.9 84 1.6 WSW 7 11 4 6 - - 0.0
24/07:30am 15.9 15.5 14.1 89 1.0 W 9 13 5 7 - - 0.0
24/07:00am 14.5 13.9 13.4 93 0.6 W 9 13 5 7 - - 0.0
24/06:30am 13.7 13.2 12.6 93 0.6 W 7 11 4 6 - - 0.0
24/06:00am 13.8 12.9 12.5 92 0.7 W 9 11 5 6 - - 0.0
24/05:30am 14.2 13.5 13.1 93 0.6 W 9 13 5 7 - - 0.0
24/05:00am 14.1 13.7 13.0 93 0.6 WSW 7 9 4 5 - - 0.0
24/04:30am 14.2 13.4 12.9 92 0.7 W 9 11 5 6 - - 0.0
24/04:00am 14.4 13.7 13.1 92 0.7 W 9 13 5 7 - - 0.0
24/03:30am 14.4 13.9 12.8 90 0.9 W 7 9 4 5 - - 0.0
24/03:00am 15.1 14.4 13.3 89 1.0 WSW 9 13 5 7 - - 0.0
24/02:30am 15.3 15.2 14.0 92 0.7 W 7 9 4 5 - - 0.0
24/02:00am 14.1 13.6 12.8 92 0.7 W 7 9 4 5 - - 0.0
24/01:30am 14.5 14.1 13.0 91 0.8 WSW 7 9 4 5 - - 0.0
24/01:00am 15.1 15.0 13.8 92 0.7 W 7 11 4 6 - - 0.0
24/12:30am 14.6 14.2 13.0 90 0.9 SW 7 9 4 5 - - 0.0
24/12:00am 15.3 14.9 14.0 92 0.7 SW 9 11 5 6 - - 0.0
 
Date/Time
EST
Temp
°C
App
Temp
°C
Dew
Point
°C
Rel
Hum
%
Delta-T
°C
Wind Press
QNH
hPa
Press
MSL
hPa
Rain since
9am
mm
Dir  Spd
km/h
Gust
km/h
Spd
kts
Gust
kts
23/11:30pm 15.1 15.2 14.0 93 0.6 W 6 7 3 4 - - 0.0
23/11:00pm 14.7 15.8 13.4 92 0.7 CALM 0 0 0 0 - - 0.0
23/10:30pm 14.3 13.8 12.7 90 0.9 WSW 7 7 4 4 - - 0.0
23/10:00pm 14.7 15.3 13.1 90 0.9 SSE 2 7 1 4 - - 0.0

Latest Capital City Observations: Canberra | Sydney | Melbourne | Brisbane | Adelaide | Perth | Hobart | Darwin

Other Formats:

Comma delimited format used in spreadsheet applications
http://www.bom.gov.au/fwo/IDQ60901/IDQ60901.94562.axf

JavaScript Object Notation format (JSON) in row-major order
http://www.bom.gov.au/fwo/IDQ60901/IDQ60901.94562.json